Time;durP1;ratioP1;P1;durP2;ratioP2;P2;SDS_P1;SDS_P2;PMS_P1;PMS_P2;Temp;Humidity;BMP_temperature;BMP_pressure;BME280_temperature;BME280_humidity;BME280_pressure;Samples;Min_cycle;Max_cycle;Signal;HPM_P1;HPM_P2
2023/03/16 00:02:04;;;;;;;6.30;3.17;;;3.90;99.90;;;;;;5040774;28;20469;-67
2023/03/16 00:04:31;;;;;;;3.73;2.33;;;3.80;99.90;;;;;;5019688;28;21001;-68
2023/03/16 00:06:57;;;;;;;5.70;3.00;;;3.90;99.90;;;;;;5021227;28;20974;-70
2023/03/16 00:09:29;;;;;;;9.77;3.20;;;3.80;99.90;;;;;;5025162;28;20478;-69
2023/03/16 00:11:57;;;;;;;4.53;2.87;;;3.80;99.90;;;;;;5032174;28;21021;-67
2023/03/16 00:14:23;;;;;;;5.70;3.50;;;3.80;99.90;;;;;;5024424;28;20468;-68
2023/03/16 00:16:49;;;;;;;3.73;2.70;;;3.80;99.90;;;;;;5031022;28;20461;-68
2023/03/16 00:19:15;;;;;;;5.70;3.00;;;3.70;99.90;;;;;;5042806;28;20464;-68
2023/03/16 00:21:40;;;;;;;2.80;2.50;;;3.70;99.90;;;;;;5018571;28;20222;-68
2023/03/16 00:24:07;;;;;;;5.07;3.00;;;3.70;99.90;;;;;;5010729;28;20222;-68
2023/03/16 00:26:32;;;;;;;4.37;2.87;;;3.70;99.90;;;;;;5042508;28;20765;-68
2023/03/16 00:28:59;;;;;;;8.83;2.83;;;3.70;99.90;;;;;;5021972;28;20468;-68
2023/03/16 00:31:24;;;;;;;5.13;2.70;;;3.70;99.90;;;;;;5022637;28;20473;-68
2023/03/16 00:33:50;;;;;;;4.30;2.50;;;3.70;99.90;;;;;;5015956;28;20223;-69
2023/03/16 00:36:16;;;;;;;3.30;2.70;;;3.70;99.90;;;;;;5025959;28;20457;-67
2023/03/16 00:38:47;;;;;;;3.30;2.70;;;3.70;99.90;;;;;;5014575;28;20688;-69
2023/03/16 00:41:14;;;;;;;4.20;2.80;;;3.70;99.90;;;;;;5021295;28;20300;-68
2023/03/16 00:43:42;;;;;;;5.80;3.83;;;3.70;99.90;;;;;;5020294;28;20461;-68
2023/03/16 00:46:10;;;;;;;3.83;3.30;;;3.60;99.90;;;;;;5002479;28;20487;-69
2023/03/16 00:48:38;;;;;;;4.03;2.30;;;3.60;99.90;;;;;;5022008;28;20505;-68
2023/03/16 00:51:07;;;;;;;6.10;2.60;;;3.60;99.90;;;;;;5014109;28;20461;-69
2023/03/16 00:53:35;;;;;;;5.87;3.80;;;3.60;99.90;;;;;;5008864;28;21046;-68
2023/03/16 00:56:03;;;;;;;4.17;2.90;;;3.50;99.90;;;;;;5042036;28;20496;-67
2023/03/16 00:58:34;;;;;;;3.83;3.00;;;3.50;99.90;;;;;;5024396;28;20462;-70
2023/03/16 01:01:20;;;;;;;3.90;3.03;;;3.50;99.90;;;;;;5005691;28;20477;-70
2023/03/16 01:03:47;;;;;;;3.73;2.30;;;3.50;99.90;;;;;;5015783;28;21070;-69
2023/03/16 01:06:15;;;;;;;5.60;3.90;;;3.50;99.90;;;;;;5031781;28;20541;-68
2023/03/16 01:08:42;;;;;;;4.10;3.07;;;3.50;99.90;;;;;;5034078;28;20225;-69
2023/03/16 01:11:15;;;;;;;6.20;3.77;;;3.50;99.90;;;;;;5009005;28;20461;-68
2023/03/16 01:13:41;;;;;;;7.53;3.80;;;3.40;99.90;;;;;;5041511;28;20479;-67
2023/03/16 01:16:08;;;;;;;8.60;4.23;;;3.50;99.90;;;;;;5025325;28;20513;-69
2023/03/16 01:18:33;;;;;;;4.10;3.37;;;3.50;99.90;;;;;;5042686;28;20488;-68
2023/03/16 01:21:00;;;;;;;14.93;4.10;;;3.40;99.90;;;;;;5004045;28;20511;-66
2023/03/16 01:23:30;;;;;;;6.20;4.87;;;3.40;99.90;;;;;;5025412;28;20219;-69
2023/03/16 01:25:56;;;;;;;4.40;3.00;;;3.40;99.90;;;;;;5023448;28;20446;-67
2023/03/16 01:28:24;;;;;;;6.97;3.70;;;3.40;99.90;;;;;;5026978;28;20474;-69
2023/03/16 01:30:53;;;;;;;9.70;3.50;;;3.40;99.90;;;;;;5029270;28;20537;-68
2023/03/16 01:33:23;;;;;;;4.90;3.90;;;3.40;99.90;;;;;;5031387;28;20461;-68
2023/03/16 01:36:07;;;;;;;6.30;4.00;;;3.30;99.90;;;;;;5011145;28;20462;-67
2023/03/16 01:38:42;;;;;;;8.93;4.57;;;3.30;99.90;;;;;;5028101;28;20461;-68
2023/03/16 01:41:09;;;;;;;5.13;3.70;;;3.10;99.90;;;;;;5014716;28;20453;-69
2023/03/16 01:43:36;;;;;;;6.97;4.07;;;3.20;99.90;;;;;;5030794;28;20496;-67
2023/03/16 01:46:05;;;;;;;6.77;4.10;;;3.20;99.90;;;;;;5027675;28;20875;-68
2023/03/16 01:48:43;;;;;;;6.30;3.87;;;3.30;99.90;;;;;;5028939;28;20477;-70
2023/03/16 01:51:20;;;;;;;7.80;4.37;;;3.30;99.90;;;;;;5024005;28;20548;-69
2023/03/16 01:53:51;;;;;;;4.63;3.67;;;3.30;99.90;;;;;;5016525;28;20460;-69
2023/03/16 01:56:23;;;;;;;7.67;4.13;;;3.30;99.90;;;;;;5026114;28;20994;-69
2023/03/16 01:58:52;;;;;;;7.30;5.00;;;3.20;99.90;;;;;;5029725;28;20523;-67
2023/03/16 02:01:18;;;;;;;8.07;4.70;;;3.20;99.90;;;;;;5025695;28;20466;-69
2023/03/16 02:03:45;;;;;;;6.00;3.87;;;3.20;99.90;;;;;;5004581;28;20459;-68
2023/03/16 02:06:19;;;;;;;7.50;4.77;;;3.20;99.90;;;;;;5030430;28;20984;-68
2023/03/16 02:08:54;;;;;;;5.80;4.33;;;3.20;99.90;;;;;;5028212;28;20481;-69
2023/03/16 02:11:21;;;;;;;8.43;4.83;;;3.20;99.90;;;;;;5026444;28;20849;-69
2023/03/16 02:14:10;;;;;;;8.03;4.43;;;3.20;99.90;;;;;;5021620;28;20477;-68
2023/03/16 02:16:37;;;;;;;6.97;4.03;;;3.20;99.90;;;;;;5010062;28;20454;-70
2023/03/16 02:19:08;;;;;;;9.80;4.70;;;3.20;99.90;;;;;;5030684;28;20524;-68
2023/03/16 02:21:34;;;;;;;5.87;4.00;;;3.20;99.90;;;;;;5012515;28;20447;-65
2023/03/16 02:24:02;;;;;;;10.07;5.43;;;3.20;99.90;;;;;;5027040;28;21222;-68
2023/03/16 02:26:36;;;;;;;6.43;4.60;;;3.20;99.90;;;;;;5040941;28;20484;-68
2023/03/16 02:29:19;;;;;;;6.97;5.03;;;3.20;99.90;;;;;;5026962;28;20466;-68
2023/03/16 02:31:47;;;;;;;12.10;5.80;;;3.20;99.90;;;;;;5017157;28;20524;-68
2023/03/16 02:34:15;;;;;;;5.73;4.00;;;3.10;99.90;;;;;;5025641;28;20894;-70
2023/03/16 02:36:44;;;;;;;6.53;4.17;;;3.10;99.90;;;;;;5016966;28;21037;-68
2023/03/16 02:39:10;;;;;;;7.63;4.83;;;3.10;99.90;;;;;;5030212;28;20454;-68
2023/03/16 02:41:44;;;;;;;5.63;4.17;;;3.10;99.90;;;;;;5016650;28;20458;-69
2023/03/16 02:44:23;;;;;;;8.77;5.20;;;3.10;99.90;;;;;;5030844;28;20970;-68
2023/03/16 02:46:53;;;;;;;9.03;5.20;;;3.10;99.90;;;;;;5029943;28;20453;-66
2023/03/16 02:49:28;;;;;;;4.90;4.40;;;3.10;99.90;;;;;;5025825;28;20473;-69
2023/03/16 02:51:56;;;;;;;9.73;4.83;;;3.10;99.90;;;;;;5027396;28;20470;-68
2023/03/16 02:54:22;;;;;;;5.13;3.20;;;3.10;99.90;;;;;;5012501;28;20458;-66
2023/03/16 02:56:49;;;;;;;6.57;4.50;;;3.10;99.90;;;;;;5028069;28;20454;-68
2023/03/16 02:59:15;;;;;;;9.77;5.00;;;3.10;99.90;;;;;;5030402;28;20500;-68
2023/03/16 03:01:41;;;;;;;9.10;4.87;;;3.10;99.90;;;;;;5028449;28;20511;-68
2023/03/16 03:04:06;;;;;;;6.30;4.67;;;3.10;99.90;;;;;;5027242;28;20239;-68
2023/03/16 03:06:32;;;;;;;6.70;4.60;;;3.00;99.90;;;;;;5027234;28;20218;-68
2023/03/16 03:09:00;;;;;;;6.43;4.00;;;3.10;99.90;;;;;;5045165;28;20227;-68
2023/03/16 03:11:27;;;;;;;6.67;3.93;;;3.00;99.90;;;;;;5020703;28;20474;-67
2023/03/16 03:13:54;;;;;;;10.07;4.93;;;3.00;99.90;;;;;;5044463;28;20449;-68
2023/03/16 03:16:22;;;;;;;4.93;4.30;;;3.00;99.90;;;;;;5010476;28;20461;-68
2023/03/16 03:18:51;;;;;;;6.50;4.50;;;3.00;99.90;;;;;;5012691;28;20508;-66
2023/03/16 03:21:17;;;;;;;9.43;4.87;;;3.00;99.90;;;;;;5014509;28;20460;-68
2023/03/16 03:23:45;;;;;;;6.87;4.20;;;3.00;99.90;;;;;;5028721;28;20453;-68
2023/03/16 03:26:14;;;;;;;5.93;4.37;;;3.00;99.90;;;;;;5028903;28;20262;-68
2023/03/16 03:28:40;;;;;;;8.80;5.43;;;3.00;99.90;;;;;;5026550;28;20473;-67
2023/03/16 03:31:06;;;;;;;5.60;4.67;;;3.00;99.90;;;;;;5016737;28;20453;-68
2023/03/16 03:33:32;;;;;;;5.40;4.10;;;3.00;99.90;;;;;;5033203;28;20279;-68
2023/03/16 03:36:00;;;;;;;6.60;4.30;;;3.00;99.90;;;;;;5034874;28;20524;-68
2023/03/16 03:38:31;;;;;;;6.27;4.53;;;3.00;99.90;;;;;;5030126;28;20306;-68
2023/03/16 03:40:59;;;;;;;7.20;4.47;;;2.90;99.90;;;;;;5033072;28;20855;-68
2023/03/16 03:43:29;;;;;;;8.30;4.97;;;2.90;99.90;;;;;;5025238;28;20241;-67
2023/03/16 03:45:57;;;;;;;7.03;4.20;;;2.90;99.90;;;;;;5014957;28;20458;-67
2023/03/16 03:48:23;;;;;;;10.93;5.00;;;2.90;99.90;;;;;;5045560;28;20544;-68
2023/03/16 03:50:49;;;;;;;7.23;3.90;;;2.90;99.90;;;;;;5026082;28;20465;-66
2023/03/16 03:53:36;;;;;;;8.07;4.90;;;2.90;99.90;;;;;;5032171;28;20596;-69
2023/03/16 03:56:19;;;;;;;6.87;5.23;;;2.90;99.90;;;;;;5017243;28;20445;-68
2023/03/16 03:58:45;;;;;;;7.00;4.13;;;2.90;99.90;;;;;;5015168;28;21065;-68
2023/03/16 04:01:14;;;;;;;7.73;4.87;;;2.90;99.90;;;;;;5017582;28;20517;-68
2023/03/16 04:03:40;;;;;;;8.23;4.77;;;2.80;99.90;;;;;;5029755;28;20564;-67
2023/03/16 04:06:07;;;;;;;7.53;4.80;;;2.80;99.90;;;;;;5015453;28;20318;-68
2023/03/16 04:08:33;;;;;;;9.33;4.77;;;2.80;99.90;;;;;;5032643;28;20477;-68
2023/03/16 04:10:59;;;;;;;6.90;4.97;;;2.80;99.90;;;;;;5025375;28;20584;-68
2023/03/16 04:13:26;;;;;;;5.63;4.23;;;2.80;99.90;;;;;;5029091;28;20465;-67
2023/03/16 04:16:01;;;;;;;8.03;4.77;;;2.80;99.90;;;;;;5029201;28;20534;-68
2023/03/16 04:18:37;;;;;;;6.40;4.60;;;2.80;99.90;;;;;;5006071;28;20470;-68
2023/03/16 04:21:05;;;;;;;8.63;5.07;;;2.80;99.90;;;;;;5022562;28;20461;-67
2023/03/16 04:23:34;;;;;;;5.83;4.67;;;2.80;99.90;;;;;;5016928;28;20843;-68
2023/03/16 04:26:01;;;;;;;7.30;4.23;;;2.80;99.90;;;;;;5017825;28;20543;-69
2023/03/16 04:28:27;;;;;;;8.33;5.20;;;2.80;99.90;;;;;;5016434;28;20484;-67
2023/03/16 04:30:56;;;;;;;8.23;5.27;;;2.70;99.90;;;;;;5028124;28;20983;-68
2023/03/16 04:33:28;;;;;;;7.27;4.57;;;2.70;99.90;;;;;;5026839;28;20226;-68
2023/03/16 04:35:54;;;;;;;6.07;4.20;;;2.70;99.90;;;;;;5011221;28;20479;-68
2023/03/16 04:38:21;;;;;;;8.37;4.20;;;2.70;99.90;;;;;;5014275;28;20450;-68
2023/03/16 04:40:54;;;;;;;5.23;3.83;;;2.70;99.90;;;;;;5024500;28;20517;-68
2023/03/16 04:43:23;;;;;;;4.53;4.00;;;2.70;99.90;;;;;;5039362;28;20498;-68
2023/03/16 04:45:51;;;;;;;7.23;4.70;;;2.70;99.90;;;;;;5018399;28;20469;-68
2023/03/16 04:48:18;;;;;;;12.87;4.83;;;2.70;99.90;;;;;;5031738;28;20474;-68
2023/03/16 04:50:47;;;;;;;5.67;3.90;;;2.70;99.90;;;;;;5019317;28;20523;-68
2023/03/16 04:53:14;;;;;;;8.70;5.03;;;2.70;99.90;;;;;;5036251;28;20215;-67
2023/03/16 04:55:40;;;;;;;7.30;4.70;;;2.70;99.90;;;;;;5031631;28;20465;-68
2023/03/16 04:58:06;;;;;;;6.90;5.03;;;2.70;99.90;;;;;;5028166;28;20442;-68
2023/03/16 05:00:35;;;;;;;9.60;4.00;;;2.70;99.90;;;;;;5032516;28;20385;-68
2023/03/16 05:03:06;;;;;;;7.90;5.60;;;2.70;99.90;;;;;;5029161;28;20452;-68
2023/03/16 05:05:32;;;;;;;9.50;4.40;;;2.70;99.90;;;;;;5018792;28;20457;-68
2023/03/16 05:07:57;;;;;;;7.60;4.50;;;2.70;99.90;;;;;;5022763;28;20456;-68
2023/03/16 05:10:26;;;;;;;5.70;4.00;;;2.70;99.90;;;;;;5022567;28;20593;-68
2023/03/16 05:12:52;;;;;;;8.43;4.80;;;2.70;99.90;;;;;;5006403;28;20854;-68
2023/03/16 05:15:18;;;;;;;6.90;4.70;;;2.70;99.90;;;;;;5032781;28;20540;-68
2023/03/16 05:17:54;;;;;;;6.20;3.90;;;2.70;99.90;;;;;;5031161;28;20484;-68
2023/03/16 05:20:21;;;;;;;6.70;4.60;;;2.70;99.90;;;;;;5027220;28;20469;-68
2023/03/16 05:22:51;;;;;;;6.97;4.17;;;2.70;99.90;;;;;;5033112;28;20466;-67
2023/03/16 05:25:39;;;;;;;7.43;4.77;;;2.70;99.90;;;;;;5060103;28;20452;-68
2023/03/16 05:28:08;;;;;;;7.83;5.07;;;2.60;99.90;;;;;;5033825;28;20462;-68
2023/03/16 05:30:55;;;;;;;6.80;4.10;;;2.60;99.90;;;;;;5056178;28;20450;-68
2023/03/16 05:33:24;;;;;;;9.80;5.00;;;2.50;99.90;;;;;;5027580;28;20469;-66
2023/03/16 05:35:56;;;;;;;5.47;3.97;;;2.60;99.90;;;;;;5018512;28;20957;-66
2023/03/16 05:38:23;;;;;;;14.00;5.47;;;2.60;99.90;;;;;;5030490;28;20457;-68
2023/03/16 05:40:53;;;;;;;6.03;4.57;;;2.60;99.90;;;;;;5046992;28;20466;-67
2023/03/16 05:43:39;;;;;;;7.53;5.00;;;2.60;99.90;;;;;;5005696;28;20538;-67
2023/03/16 05:46:05;;;;;;;7.97;4.87;;;2.40;99.90;;;;;;5030002;28;20492;-68
2023/03/16 05:48:31;;;;;;;7.20;4.40;;;2.50;99.90;;;;;;5020469;28;20239;-68
2023/03/16 05:50:58;;;;;;;7.23;4.90;;;2.60;99.90;;;;;;5014513;28;20454;-68
2023/03/16 05:53:28;;;;;;;6.87;5.80;;;2.60;99.90;;;;;;5021753;28;20450;-67
2023/03/16 05:55:58;;;;;;;5.63;3.70;;;2.60;99.90;;;;;;5018150;28;20437;-68
2023/03/16 05:58:24;;;;;;;5.60;4.10;;;2.60;99.90;;;;;;5027322;28;20488;-68
2023/03/16 06:00:50;;;;;;;5.10;3.80;;;2.60;99.90;;;;;;5029196;28;20226;-68
2023/03/16 06:03:27;;;;;;;5.47;3.93;;;2.60;99.90;;;;;;5015989;28;20469;-68
2023/03/16 06:05:54;;;;;;;8.20;4.60;;;2.60;99.90;;;;;;5022133;28;20526;-70
2023/03/16 06:08:28;;;;;;;6.80;4.30;;;2.60;99.90;;;;;;5041862;28;20508;-66
2023/03/16 06:11:00;;;;;;;9.10;5.17;;;2.60;99.90;;;;;;5024512;28;20449;-66
2023/03/16 06:13:25;;;;;;;5.87;4.73;;;2.60;99.90;;;;;;5031566;28;20461;-67
2023/03/16 06:15:51;;;;;;;6.80;4.00;;;2.60;99.90;;;;;;5024521;28;20365;-67
2023/03/16 06:18:17;;;;;;;5.07;4.53;;;2.60;99.90;;;;;;5032214;28;20226;-68
2023/03/16 06:20:46;;;;;;;5.33;3.80;;;2.50;99.90;;;;;;5049363;28;20456;-68
2023/03/16 06:23:12;;;;;;;7.40;4.40;;;2.50;99.90;;;;;;5011745;28;20497;-68
2023/03/16 06:25:39;;;;;;;8.90;5.13;;;2.60;99.90;;;;;;5027421;28;20871;-69
2023/03/16 06:28:06;;;;;;;5.80;4.70;;;2.60;99.90;;;;;;5030477;28;20457;-68
2023/03/16 06:30:33;;;;;;;7.70;4.50;;;2.60;99.90;;;;;;4986230;28;20485;-68
2023/03/16 06:32:59;;;;;;;8.57;4.90;;;2.70;99.90;;;;;;5012793;28;20457;-68
2023/03/16 06:35:25;;;;;;;8.80;5.50;;;2.70;99.90;;;;;;5011558;28;20431;-68
2023/03/16 06:38:23;;;;;;;8.50;5.10;;;2.60;99.90;;;;;;5020874;28;20536;-69
2023/03/16 06:40:59;;;;;;;7.27;5.03;;;2.70;99.90;;;;;;5019989;28;20457;-69
2023/03/16 06:43:25;;;;;;;9.10;5.17;;;2.70;99.90;;;;;;5044683;28;20458;-69
2023/03/16 06:45:52;;;;;;;7.50;5.17;;;2.70;99.90;;;;;;5021183;28;20457;-69
2023/03/16 06:48:18;;;;;;;10.63;5.30;;;2.70;99.90;;;;;;5025390;28;20493;-68
2023/03/16 06:50:45;;;;;;;10.20;4.40;;;2.70;99.90;;;;;;5023872;28;20496;-68
2023/03/16 06:53:12;;;;;;;7.40;5.13;;;2.70;99.90;;;;;;5028421;28;20214;-69
2023/03/16 06:55:39;;;;;;;6.90;4.40;;;2.70;99.90;;;;;;5038683;28;20454;-69
2023/03/16 06:58:04;;;;;;;8.27;4.37;;;2.70;99.90;;;;;;5008098;28;20474;-68
2023/03/16 07:00:32;;;;;;;9.27;4.80;;;2.70;99.90;;;;;;5026388;28;20547;-69
2023/03/16 07:03:00;;;;;;;9.07;5.70;;;2.70;99.90;;;;;;5015863;28;20222;-70
2023/03/16 07:05:27;;;;;;;7.70;5.20;;;2.70;99.90;;;;;;5019948;28;20993;-69
2023/03/16 07:07:53;;;;;;;8.23;5.53;;;2.80;99.90;;;;;;5024921;28;20441;-69
2023/03/16 07:10:19;;;;;;;8.43;4.70;;;2.80;99.90;;;;;;5011252;28;20210;-70
2023/03/16 07:12:45;;;;;;;8.73;4.90;;;2.80;99.90;;;;;;5022901;28;20816;-69
2023/03/16 07:15:12;;;;;;;7.93;5.37;;;2.80;99.90;;;;;;5007374;28;20460;-69
2023/03/16 07:17:39;;;;;;;6.83;4.67;;;2.80;99.90;;;;;;5028949;28;20211;-70
2023/03/16 07:20:09;;;;;;;5.90;3.73;;;2.80;99.90;;;;;;5044310;28;20561;-69
2023/03/16 07:22:36;;;;;;;8.70;5.10;;;2.80;99.90;;;;;;5024714;28;20453;-69
2023/03/16 07:25:04;;;;;;;7.43;5.83;;;2.80;99.90;;;;;;5014690;28;20863;-68
2023/03/16 07:27:30;;;;;;;7.13;5.30;;;2.80;99.90;;;;;;5049392;28;20457;-68
2023/03/16 07:29:59;;;;;;;7.90;5.23;;;2.80;99.90;;;;;;5028805;28;20453;-68
2023/03/16 07:32:25;;;;;;;6.50;5.00;;;2.90;99.90;;;;;;5017602;28;20456;-69
2023/03/16 07:34:52;;;;;;;7.53;5.10;;;2.90;99.90;;;;;;5029392;28;20462;-69
2023/03/16 07:37:18;;;;;;;7.03;5.10;;;3.00;99.90;;;;;;5026287;28;20465;-68
2023/03/16 07:39:45;;;;;;;8.20;5.03;;;3.00;99.90;;;;;;5024509;28;20457;-69
2023/03/16 07:42:16;;;;;;;7.00;4.83;;;3.10;99.90;;;;;;5028591;28;20464;-69
2023/03/16 07:45:03;;;;;;;16.17;6.00;;;3.10;99.90;;;;;;5026507;28;21039;-68
2023/03/16 07:47:30;;;;;;;8.70;4.77;;;3.10;99.90;;;;;;5028641;28;20544;-69
2023/03/16 07:50:00;;;;;;;7.53;4.70;;;3.20;99.90;;;;;;5028826;28;20563;-68
2023/03/16 07:52:26;;;;;;;7.13;4.80;;;3.20;99.90;;;;;;5016973;28;20468;-69
2023/03/16 07:54:52;;;;;;;10.23;6.00;;;3.20;99.90;;;;;;5015040;28;20550;-69
2023/03/16 07:57:18;;;;;;;9.63;5.80;;;3.30;99.90;;;;;;5025360;28;20488;-68
2023/03/16 07:59:43;;;;;;;8.07;5.20;;;3.30;99.90;;;;;;5020494;28;20235;-69
2023/03/16 08:02:17;;;;;;;6.93;5.37;;;3.30;99.90;;;;;;5022776;28;20222;-69
2023/03/16 08:04:44;;;;;;;8.10;6.03;;;3.30;99.90;;;;;;5011393;28;20462;-69
2023/03/16 08:07:13;;;;;;;9.43;5.47;;;3.40;99.90;;;;;;5026784;28;20468;-68
2023/03/16 08:09:52;;;;;;;10.30;6.37;;;3.40;99.90;;;;;;5013513;28;20480;-68
2023/03/16 08:12:23;;;;;;;8.03;5.80;;;3.50;99.90;;;;;;5024468;28;20472;-68
2023/03/16 08:14:49;;;;;;;7.60;5.20;;;3.50;99.90;;;;;;5014002;28;20465;-69
2023/03/16 08:17:23;;;;;;;8.43;5.50;;;3.60;99.90;;;;;;5032670;28;20302;-68
2023/03/16 08:19:49;;;;;;;9.73;5.77;;;3.80;99.90;;;;;;5010270;28;20554;-68
2023/03/16 08:22:16;;;;;;;11.07;6.57;;;3.80;99.90;;;;;;5008915;28;20594;-68
2023/03/16 08:24:44;;;;;;;9.33;5.30;;;3.90;99.90;;;;;;5022383;28;21015;-69
2023/03/16 08:27:12;;;;;;;11.70;5.97;;;4.00;99.90;;;;;;5009445;28;20461;-69
2023/03/16 08:29:40;;;;;;;8.40;5.33;;;4.00;99.90;;;;;;5026572;28;20563;-69
2023/03/16 08:32:11;;;;;;;8.13;4.57;;;4.00;99.90;;;;;;5016220;28;20531;-68
2023/03/16 08:34:41;;;;;;;7.03;5.33;;;4.10;99.90;;;;;;5026098;28;20476;-69
2023/03/16 08:37:08;;;;;;;11.87;6.00;;;4.10;99.90;;;;;;5014232;28;20492;-68
2023/03/16 08:39:34;;;;;;;6.83;5.20;;;4.20;99.90;;;;;;5022470;28;20460;-69
2023/03/16 08:42:06;;;;;;;9.53;5.60;;;4.10;99.90;;;;;;5011431;28;20446;-68
2023/03/16 08:44:46;;;;;;;8.60;5.60;;;4.20;99.90;;;;;;5016656;28;21053;-68
2023/03/16 08:47:13;;;;;;;9.17;4.43;;;4.50;99.90;;;;;;5022307;28;20834;-68
2023/03/16 08:49:41;;;;;;;9.50;5.67;;;4.70;99.90;;;;;;4996876;28;20502;-69
2023/03/16 08:52:11;;;;;;;9.10;5.27;;;4.70;99.90;;;;;;5003535;28;20457;-68
2023/03/16 08:54:37;;;;;;;7.17;5.77;;;4.60;99.90;;;;;;4997202;28;20466;-68
2023/03/16 08:57:03;;;;;;;11.07;5.60;;;4.50;99.90;;;;;;5009455;28;20524;-69
2023/03/16 08:59:29;;;;;;;7.00;4.67;;;4.60;99.90;;;;;;5015388;28;20470;-69
2023/03/16 09:01:55;;;;;;;11.40;6.20;;;4.60;99.90;;;;;;5013566;28;20246;-67
2023/03/16 09:04:20;;;;;;;8.40;4.73;;;4.70;99.90;;;;;;5031729;28;20219;-69
2023/03/16 09:06:49;;;;;;;7.77;5.67;;;4.80;99.90;;;;;;5029972;28;20214;-68
2023/03/16 09:09:16;;;;;;;10.07;6.23;;;4.80;99.90;;;;;;5029564;28;20227;-68
2023/03/16 09:11:42;;;;;;;11.00;5.50;;;5.00;99.90;;;;;;5047420;28;20508;-69
2023/03/16 09:14:10;;;;;;;12.43;6.03;;;5.10;99.90;;;;;;5049162;28;20461;-69
2023/03/16 09:16:37;;;;;;;10.07;6.00;;;5.10;99.90;;;;;;5042339;28;20485;-70
2023/03/16 09:19:03;;;;;;;12.50;6.43;;;5.20;99.90;;;;;;5027138;28;20579;-69
2023/03/16 09:21:30;;;;;;;12.50;6.37;;;5.40;99.90;;;;;;5007989;28;20548;-67
2023/03/16 09:23:55;;;;;;;15.53;8.30;;;5.50;99.90;;;;;;5032268;28;20786;-69
2023/03/16 09:26:21;;;;;;;14.10;7.97;;;5.70;99.90;;;;;;5024842;28;20485;-70
2023/03/16 09:28:48;;;;;;;11.30;7.03;;;5.90;99.90;;;;;;5026927;28;20231;-69
2023/03/16 09:31:18;;;;;;;15.37;8.07;;;6.00;99.90;;;;;;5014934;28;20219;-69
2023/03/16 09:33:45;;;;;;;10.90;8.50;;;6.20;99.90;;;;;;5019891;28;20542;-69
2023/03/16 09:36:12;;;;;;;12.23;7.60;;;6.30;99.90;;;;;;5026089;28;20522;-69
2023/03/16 09:38:38;;;;;;;14.90;8.70;;;6.40;99.90;;;;;;5032372;28;20498;-69
2023/03/16 09:41:09;;;;;;;12.80;7.97;;;6.40;99.90;;;;;;5017806;28;20827;-68
2023/03/16 09:43:47;;;;;;;12.80;6.80;;;6.40;99.90;;;;;;5048119;28;20501;-70
2023/03/16 09:46:31;;;;;;;12.87;8.20;;;6.50;99.90;;;;;;5021580;28;20461;-69
2023/03/16 09:48:58;;;;;;;9.10;6.93;;;6.60;99.90;;;;;;5021488;28;20469;-69
2023/03/16 09:51:39;;;;;;;18.77;9.23;;;6.70;99.90;;;;;;5045053;28;20494;-69
2023/03/16 09:54:18;;;;;;;13.13;9.10;;;6.90;99.90;;;;;;5024257;28;20461;-69
2023/03/16 10:00:30;;;;;;;12.13;8.70;;;7.10;99.90;;;;;;5048639;28;20548;-69
2023/03/16 10:07:01;;;;;;;12.07;8.70;;;7.30;99.90;;;;;;5043289;28;20457;-69
2023/03/16 10:09:37;;;;;;;12.80;8.20;;;7.70;99.90;;;;;;5026980;28;20479;-69
2023/03/16 10:12:05;;;;;;;14.43;9.40;;;7.70;99.90;;;;;;5038437;28;20449;-69
2023/03/16 10:14:43;;;;;;;15.77;9.07;;;7.60;99.90;;;;;;5029744;28;21185;-68
2023/03/16 10:17:19;;;;;;;12.63;8.13;;;7.60;99.90;;;;;;5011477;28;20468;-69
2023/03/16 10:20:00;;;;;;;13.83;7.97;;;7.80;99.90;;;;;;5046295;28;20540;-71
2023/03/16 10:22:30;;;;;;;11.67;8.17;;;8.00;99.90;;;;;;5013762;28;20462;-69
2023/03/16 10:25:17;;;;;;;11.90;8.67;;;8.10;99.90;;;;;;5005488;28;20473;-69
2023/03/16 10:27:44;;;;;;;13.20;8.23;;;8.50;99.90;;;;;;5022921;28;20465;-70
2023/03/16 10:30:24;;;;;;;13.00;8.67;;;8.60;99.90;;;;;;5045571;28;20824;-70
2023/03/16 10:32:51;;;;;;;13.30;8.77;;;8.60;99.90;;;;;;5045057;28;20469;-70
2023/03/16 10:35:30;;;;;;;11.50;8.17;;;8.70;99.90;;;;;;5029356;28;20854;-69
2023/03/16 10:37:57;;;;;;;11.20;8.30;;;8.40;99.90;;;;;;5037007;28;20549;-69
2023/03/16 10:40:23;;;;;;;11.90;8.43;;;8.50;99.90;;;;;;5027993;28;20495;-70
2023/03/16 10:42:49;;;;;;;12.60;8.13;;;8.50;99.90;;;;;;5025196;28;20477;-69
2023/03/16 10:45:24;;;;;;;14.50;9.53;;;8.60;99.90;;;;;;5045141;28;20288;-70
2023/03/16 10:47:49;;;;;;;10.83;8.40;;;8.80;99.90;;;;;;5046809;28;20302;-69
2023/03/16 10:50:22;;;;;;;10.50;7.40;;;8.90;99.90;;;;;;5026917;28;20563;-69
2023/03/16 10:52:49;;;;;;;12.50;8.37;;;9.00;99.90;;;;;;5029615;28;20223;-69
2023/03/16 10:55:16;;;;;;;12.13;8.40;;;9.00;99.90;;;;;;5024506;28;20456;-68
2023/03/16 10:57:52;;;;;;;15.60;8.27;;;9.20;99.90;;;;;;5048961;28;20997;-70
2023/03/16 11:00:26;;;;;;;11.77;7.77;;;9.30;99.90;;;;;;5028185;28;20557;-70
2023/03/16 11:02:54;;;;;;;12.60;7.63;;;9.40;99.90;;;;;;5012256;28;20552;-69
2023/03/16 11:05:33;;;;;;;14.43;8.70;;;9.40;99.90;;;;;;5012858;28;20471;-70
2023/03/16 11:08:10;;;;;;;11.27;7.30;;;9.50;99.90;;;;;;5025793;28;20461;-70
2023/03/16 11:10:43;;;;;;;11.80;8.30;;;9.40;99.90;;;;;;5046386;28;20514;-69
2023/03/16 11:13:16;;;;;;;10.90;7.83;;;9.50;99.90;;;;;;5009441;28;20531;-69
2023/03/16 11:15:51;;;;;;;11.20;7.77;;;9.40;99.90;;;;;;5010044;28;20479;-70
2023/03/16 11:18:37;;;;;;;12.17;7.57;;;9.50;99.90;;;;;;5045483;28;20470;-70
2023/03/16 11:21:19;;;;;;;14.53;8.97;;;9.40;99.90;;;;;;5027544;28;20576;-70
2023/03/16 11:23:50;;;;;;;15.17;8.27;;;9.20;99.90;;;;;;5026729;28;20494;-70
2023/03/16 11:26:41;;;;;;;10.17;6.90;;;9.10;99.90;;;;;;5023056;28;20473;-70
2023/03/16 11:29:45;;;;;;;12.50;7.60;;;9.20;99.90;;;;;;5024837;28;20510;-71
2023/03/16 11:32:19;;;;;;;10.93;8.03;;;9.30;99.90;;;;;;5036729;28;20454;-69
2023/03/16 11:34:47;;;;;;;11.40;7.40;;;9.30;99.90;;;;;;5042123;28;20472;-70
2023/03/16 11:37:37;;;;;;;10.30;7.97;;;9.20;99.90;;;;;;5009605;28;20442;-69
2023/03/16 11:40:15;;;;;;;12.63;8.73;;;9.20;99.90;;;;;;5028284;28;20477;-70
2023/03/16 11:42:52;;;;;;;13.70;7.73;;;9.10;99.90;;;;;;5024215;28;20529;-69
2023/03/16 11:45:23;;;;;;;17.30;8.17;;;9.10;99.90;;;;;;5050990;28;20462;-70
2023/03/16 11:48:08;;;;;;;11.73;7.50;;;9.30;99.90;;;;;;5045532;28;20839;-72
2023/03/16 11:50:42;;;;;;;12.53;8.20;;;9.50;99.90;;;;;;5027962;28;20475;-70
2023/03/16 11:53:37;;;;;;;13.30;8.30;;;9.50;99.90;;;;;;5024888;28;21097;-70
2023/03/16 11:56:18;;;;;;;11.67;7.97;;;9.50;99.90;;;;;;4994043;28;20582;-70
2023/03/16 11:59:00;;;;;;;12.30;6.50;;;9.50;99.90;;;;;;5047517;28;20450;-68
2023/03/16 12:01:34;;;;;;;11.43;7.30;;;9.70;99.90;;;;;;5029051;28;20855;-70
2023/03/16 12:04:26;;;;;;;11.10;7.43;;;10.20;99.90;;;;;;5030717;28;20458;-70
2023/03/16 12:07:30;;;;;;;12.37;7.27;;;10.40;99.90;;;;;;5042552;28;20875;-70
2023/03/16 12:10:29;;;;;;;10.43;7.57;;;10.50;99.90;;;;;;4966191;28;20508;-71
2023/03/16 12:13:29;;;;;;;9.47;7.00;;;10.40;99.90;;;;;;5030950;28;20617;-70
2023/03/16 12:16:01;;;;;;;8.67;6.10;;;10.20;99.90;;;;;;5027903;28;20476;-70
2023/03/16 12:18:45;;;;;;;10.87;7.13;;;10.00;99.90;;;;;;5030017;28;20565;-70
2023/03/16 12:21:21;;;;;;;9.50;7.33;;;10.20;99.90;;;;;;5016127;28;20470;-70
2023/03/16 12:23:54;;;;;;;9.93;7.97;;;10.30;99.90;;;;;;5030879;28;20489;-69
2023/03/16 12:26:22;;;;;;;8.17;5.70;;;10.50;99.90;;;;;;5028894;28;20463;-70
2023/03/16 12:28:50;;;;;;;9.20;6.60;;;11.20;99.90;;;;;;5028139;28;20483;-70
2023/03/16 12:31:34;;;;;;;11.40;5.77;;;11.60;99.90;;;;;;5029525;28;20478;-70
2023/03/16 12:34:07;;;;;;;6.30;5.53;;;12.00;99.90;;;;;;5045643;28;20448;-69
2023/03/16 12:36:56;;;;;;;9.03;5.10;;;12.20;99.90;;;;;;5027054;28;20465;-71
2023/03/16 12:39:46;;;;;;;6.30;4.67;;;12.10;99.90;;;;;;5012744;28;20548;-70
2023/03/16 12:42:28;;;;;;;5.00;4.00;;;11.80;99.90;;;;;;5031416;28;20448;-70
2023/03/16 12:45:03;;;;;;;4.73;3.80;;;11.60;99.90;;;;;;5043388;28;20466;-70
2023/03/16 12:47:36;;;;;;;7.90;4.07;;;12.00;99.90;;;;;;5009060;28;20454;-70
2023/03/16 12:50:11;;;;;;;4.43;3.10;;;12.00;99.90;;;;;;5029139;28;20476;-70
2023/03/16 12:52:45;;;;;;;4.47;3.00;;;12.30;99.90;;;;;;5044525;28;20478;-71
2023/03/16 12:55:18;;;;;;;3.50;2.90;;;12.20;99.90;;;;;;5030292;28;20989;-71
2023/03/16 12:57:46;;;;;;;5.50;3.80;;;12.10;99.90;;;;;;5043629;28;20467;-69
2023/03/16 13:00:13;;;;;;;4.03;3.63;;;11.90;99.90;;;;;;5025361;28;20474;-70
2023/03/16 13:02:58;;;;;;;5.10;3.30;;;11.80;99.90;;;;;;5035823;28;20518;-69
2023/03/16 13:05:34;;;;;;;5.63;3.50;;;11.90;99.90;;;;;;5028624;28;20458;-70
2023/03/16 13:08:08;;;;;;;4.37;3.03;;;12.00;99.90;;;;;;5043988;28;20483;-70
2023/03/16 13:10:36;;;;;;;4.17;3.10;;;12.20;99.90;;;;;;5024032;28;20907;-68
2023/03/16 13:13:15;;;;;;;6.33;3.40;;;12.30;99.90;;;;;;5029027;28;20583;-69
2023/03/16 13:15:44;;;;;;;4.07;3.03;;;12.30;99.90;;;;;;5046074;28;20533;-69
2023/03/16 13:18:15;;;;;;;4.57;3.13;;;12.20;99.90;;;;;;5006010;28;20462;-71
2023/03/16 13:20:57;;;;;;;4.30;3.30;;;12.30;99.90;;;;;;5046349;28;20903;-70